Accueil
METAR-TAF:

METAR-TAF

Aéroports :

Aéroport de Sion

Sion, Suisse

latitude: 46-13N, longitude: 007-20E, altitude: 482 m

Observation

Le bulletin a été fait il y a 25 minutes, à 17:20 UTC
Vent calme
Température 3°C
Humidité 75%
Pression 1018 hPa
Visibilité 10 km ou plus
Quelques nuages à une hauteur de 4000 ft

METAR: LSGS 011720Z 00000KT 9999 FEW040 03/M01 Q1018

Heure: 18:45 (17:45 UTC)

Prévision

Le bulletin a été fait il y a 3 heures et 20 minutes, à 14:25 UTC
Prévision valable du 01 à 15 UTC au 01 à 24 UTC
Vent 7 kt de ouest/sud-ouest
Visibilité 10 km ou plus
Quelques nuages à une hauteur de 4500 ft

TAF: LSGS 011425Z 0115/0124 25007KT 9999 FEW045

Observations et prévisions météorologiques de plus de 4000 aéroports (messages METAR et TAF).

Les stations disponibles sont représentées par des disques jaunes et rouges sur la carte.

Passer la souris dessus pour voir le nom de la station.

Cliquer dessus pour voir les observations et prévisions météorologiques.

Pour changer de carte: cliquez sur les boutons verts avec une croix noire pour zoomer, sur le bouton vert avec un tiret pour effectuer un zoom arrière, ou sur les flèches vertes pour les cartes adjacentes.


METAR-TAF: